Time;durP1;ratioP1;P1;durP2;ratioP2;P2;SDS_P1;SDS_P2;PMS_P1;PMS_P2;Temp;Humidity;BMP_temperature;BMP_pressure;BME280_temperature;BME280_humidity;BME280_pressure;Samples;Min_cycle;Max_cycle;Signal;HPM_P1;HPM_P2
2023/08/21 00:00:14;;;;;;;10.57;7.07;;;;;;;27.96;61.74;101819.28;5014301;27;98884;-66
2023/08/21 00:02:41;;;;;;;9.98;6.78;;;;;;;27.98;61.83;101813.72;5029195;27;98859;-66
2023/08/21 00:05:08;;;;;;;9.18;6.85;;;;;;;27.64;62.77;101824.94;5023972;27;99022;-66
2023/08/21 00:07:35;;;;;;;13.27;6.57;;;;;;;27.66;62.60;101812.09;5023712;27;96972;-66
2023/08/21 00:10:01;;;;;;;10.60;6.30;;;;;;;27.81;62.24;101812.56;5027142;27;98927;-66
2023/08/21 00:12:28;;;;;;;10.27;6.40;;;;;;;27.53;63.37;101810.63;5027960;27;98722;-66
2023/08/21 00:14:56;;;;;;;12.32;6.57;;;;;;;27.45;62.66;101810.41;5032271;27;96691;-66
2023/08/21 00:17:22;;;;;;;9.25;6.25;;;;;;;27.38;63.00;101810.97;5023737;27;96963;-65
2023/08/21 00:19:48;;;;;;;7.35;5.90;;;;;;;27.42;62.26;101813.44;5025003;27;99395;-66
2023/08/21 00:22:14;;;;;;;10.45;6.00;;;;;;;27.56;61.26;101811.22;5019019;27;98880;-66
2023/08/21 00:24:41;;;;;;;11.18;5.78;;;;;;;27.47;61.81;101812.00;5021516;27;96879;-66
2023/08/21 00:27:07;;;;;;;9.52;6.60;;;;;;;27.60;61.46;101807.22;5019199;27;97043;-66
2023/08/21 00:29:33;;;;;;;10.43;6.07;;;;;;;27.48;62.21;101815.59;5028682;27;97715;-66
2023/08/21 00:32:01;;;;;;;10.38;6.05;;;;;;;27.47;61.94;101816.56;5014530;27;99300;-65
2023/08/21 00:34:28;;;;;;;9.27;6.25;;;;;;;27.55;61.30;101808.66;5028007;27;97027;-65
2023/08/21 00:36:54;;;;;;;7.43;5.30;;;;;;;27.65;60.89;101809.50;5025538;27;96800;-65
2023/08/21 00:39:20;;;;;;;9.57;5.95;;;;;;;27.68;60.78;101809.25;5019982;27;99106;-65
2023/08/21 00:41:47;;;;;;;9.85;6.05;;;;;;;27.68;60.57;101810.09;5029926;27;99232;-65
2023/08/21 00:44:13;;;;;;;11.73;6.30;;;;;;;27.53;61.52;101824.19;5027226;27;98038;-65
2023/08/21 00:46:40;;;;;;;9.35;6.15;;;;;;;27.48;61.82;101813.72;5026540;27;97348;-63
2023/08/21 00:49:08;;;;;;;8.50;5.50;;;;;;;27.55;62.03;101822.22;5029637;27;99276;-65
2023/08/21 00:51:34;;;;;;;9.23;6.55;;;;;;;27.42;62.74;101827.84;5022420;27;99677;-66
2023/08/21 00:54:01;;;;;;;9.65;7.05;;;;;;;27.46;62.77;101828.44;5028012;27;96831;-65
2023/08/21 00:56:27;;;;;;;8.25;6.20;;;;;;;27.28;63.12;101812.81;5018467;27;97173;-65
2023/08/21 00:58:54;;;;;;;12.05;6.95;;;;;;;27.25;63.38;101815.78;5020678;27;99695;-66
2023/08/21 01:01:24;;;;;;;11.10;6.60;;;;;;;27.32;63.54;101822.38;5027945;27;98190;-65
2023/08/21 01:03:50;;;;;;;12.75;6.43;;;;;;;27.46;63.28;101817.56;5022925;27;98724;-66
2023/08/21 01:06:20;;;;;;;9.43;6.70;;;;;;;27.38;63.36;101821.81;5024388;27;96882;-65
2023/08/21 01:08:54;;;;;;;8.80;7.05;;;;;;;27.28;63.66;101817.38;5022217;27;99970;-66
2023/08/21 01:11:25;;;;;;;12.38;6.55;;;;;;;27.07;64.68;101813.84;5023446;27;99211;-65
2023/08/21 01:14:00;;;;;;;11.68;7.10;;;;;;;27.19;64.94;101821.75;5028836;27;96723;-66
2023/08/21 01:16:27;;;;;;;12.23;6.90;;;;;;;27.05;65.60;101819.41;5027331;27;96844;-66
2023/08/21 01:18:57;;;;;;;12.57;7.38;;;;;;;27.24;64.92;101816.78;5028138;27;99226;-65
2023/08/21 01:21:25;;;;;;;9.20;6.85;;;;;;;26.87;66.39;101811.00;5026806;27;98890;-65
2023/08/21 01:23:53;;;;;;;9.43;6.40;;;;;;;27.16;65.55;101813.91;5024353;27;96911;-66
2023/08/21 01:26:20;;;;;;;8.23;7.05;;;;;;;27.14;65.65;101809.59;5023891;27;98135;-66
2023/08/21 01:28:47;;;;;;;13.32;7.40;;;;;;;27.25;64.92;101810.34;5018055;27;98900;-66
2023/08/21 01:31:24;;;;;;;9.68;6.68;;;;;;;27.30;64.76;101810.81;5025876;27;99400;-66
2023/08/21 01:33:56;;;;;;;9.30;6.72;;;;;;;27.25;64.96;101814.91;5025445;27;96885;-66
2023/08/21 01:36:23;;;;;;;11.15;7.47;;;;;;;26.97;66.43;101813.81;5027862;27;96814;-66
2023/08/21 01:38:51;;;;;;;11.93;7.25;;;;;;;27.22;65.69;101807.94;5020828;27;99417;-66
2023/08/21 01:41:19;;;;;;;9.57;7.05;;;;;;;27.33;65.08;101807.81;5028254;27;98811;-66
2023/08/21 01:43:45;;;;;;;19.27;7.53;;;;;;;27.34;65.10;101795.97;5022165;27;96960;-66
2023/08/21 01:46:12;;;;;;;14.20;7.50;;;;;;;27.26;65.27;101787.66;5018505;27;97317;-66
2023/08/21 01:48:38;;;;;;;9.30;7.70;;;;;;;27.28;65.65;101790.25;5023402;27;98922;-65
2023/08/21 01:51:04;;;;;;;11.75;7.68;;;;;;;27.04;66.65;101784.28;5023028;27;99307;-66
2023/08/21 01:53:31;;;;;;;9.73;7.03;;;;;;;27.23;65.82;101795.22;5028038;27;97200;-66
2023/08/21 01:55:57;;;;;;;11.20;7.70;;;;;;;27.03;66.70;101791.56;5024811;27;97602;-65
2023/08/21 01:58:25;;;;;;;10.40;7.35;;;;;;;27.29;65.54;101798.25;5029384;27;99077;-66
2023/08/21 02:00:51;;;;;;;12.00;7.10;;;;;;;27.14;66.57;101798.75;5031199;27;98827;-66
2023/08/21 02:03:18;;;;;;;12.27;7.47;;;;;;;27.20;66.24;101801.78;5032045;27;98873;-66
2023/08/21 02:05:44;;;;;;;9.18;6.47;;;;;;;27.00;67.13;101796.38;5029550;27;96942;-66
2023/08/21 02:08:13;;;;;;;11.30;6.95;;;;;;;26.98;67.27;101791.09;5030279;27;99397;-65
2023/08/21 02:10:48;;;;;;;8.93;6.95;;;;;;;26.99;67.56;101798.25;5027290;27;98899;-66
2023/08/21 02:13:14;;;;;;;9.30;7.43;;;;;;;26.98;67.40;101789.25;5030660;27;96705;-66
2023/08/21 02:15:42;;;;;;;10.80;8.02;;;;;;;26.87;67.67;101791.16;5030988;27;97079;-67
2023/08/21 02:18:09;;;;;;;10.30;6.95;;;;;;;26.87;67.02;101788.44;5032388;27;99418;-66
2023/08/21 02:20:35;;;;;;;9.57;7.25;;;;;;;27.01;66.30;101793.53;5030193;27;99049;-64
2023/08/21 02:23:02;;;;;;;10.32;6.78;;;;;;;26.91;66.72;101788.06;5030638;27;96985;-65
2023/08/21 02:25:28;;;;;;;11.82;7.03;;;;;;;26.95;66.28;101788.66;5028937;27;97041;-65
2023/08/21 02:27:54;;;;;;;11.95;7.43;;;;;;;26.62;67.67;101792.44;5030473;27;101443;-64
2023/08/21 02:30:24;;;;;;;13.70;6.93;;;;;;;26.61;67.51;101790.72;5025412;27;99289;-65
2023/08/21 02:32:53;;;;;;;12.32;7.10;;;;;;;26.87;66.93;101796.56;5031395;27;96750;-66
2023/08/21 02:35:19;;;;;;;13.80;7.00;;;;;;;26.95;66.08;101804.94;5028531;27;97096;-65
2023/08/21 02:37:45;;;;;;;9.52;6.68;;;;;;;26.79;66.44;101804.50;5028644;27;98740;-64
2023/08/21 02:40:12;;;;;;;10.13;7.13;;;;;;;26.75;66.76;101793.09;5032164;27;99173;-64
2023/08/21 02:42:38;;;;;;;10.40;6.72;;;;;;;26.67;66.82;101800.16;5028017;27;98150;-65
2023/08/21 02:45:08;;;;;;;11.07;6.75;;;;;;;26.75;66.80;101797.66;5022926;27;96933;-65
2023/08/21 02:47:36;;;;;;;15.65;7.32;;;;;;;26.58;67.42;101799.13;5020165;27;99363;-65
2023/08/21 02:50:07;;;;;;;10.57;6.82;;;;;;;26.80;66.60;101798.97;5031570;27;96883;-64
2023/08/21 02:52:33;;;;;;;13.55;6.68;;;;;;;26.88;66.21;101793.75;5029007;27;97277;-65
2023/08/21 02:55:00;;;;;;;9.65;6.75;;;;;;;26.84;66.00;101791.44;5030513;27;96927;-65
2023/08/21 02:57:27;;;;;;;11.25;7.10;;;;;;;26.76;66.57;101794.81;5021587;27;99050;-65
2023/08/21 02:59:54;;;;;;;13.05;6.78;;;;;;;26.96;65.88;101793.09;5025694;27;99188;-65
2023/08/21 03:02:21;;;;;;;12.38;6.80;;;;;;;26.91;65.95;101798.06;5023397;27;101034;-66
2023/08/21 03:04:48;;;;;;;15.68;7.93;;;;;;;26.98;65.85;101799.22;5030134;27;98678;-65
2023/08/21 03:07:16;;;;;;;11.85;6.43;;;;;;;26.85;66.22;101794.00;5028156;27;99380;-65
2023/08/21 03:09:43;;;;;;;12.63;7.22;;;;;;;27.09;65.43;101792.88;5029963;27;100515;-65
2023/08/21 03:12:09;;;;;;;11.93;7.05;;;;;;;27.08;65.49;101792.00;5029063;27;96818;-64
2023/08/21 03:14:36;;;;;;;10.25;7.82;;;;;;;27.25;64.84;101795.91;5032150;27;96792;-66
2023/08/21 03:17:04;;;;;;;10.65;7.10;;;;;;;27.13;64.97;101797.03;5028338;27;100372;-66
2023/08/21 03:19:31;;;;;;;11.48;7.25;;;;;;;27.28;64.71;101792.94;5029021;27;99178;-69
2023/08/21 03:21:57;;;;;;;7.70;6.90;;;;;;;27.05;65.58;101786.84;5027276;27;98503;-66
2023/08/21 03:24:25;;;;;;;10.43;6.88;;;;;;;27.19;65.57;101783.78;5030067;27;96985;-65
2023/08/21 03:26:51;;;;;;;8.27;6.85;;;;;;;27.24;66.07;101786.91;5027022;27;99002;-65
2023/08/21 03:29:18;;;;;;;9.43;6.95;;;;;;;26.96;66.98;101788.53;5029668;27;97727;-65
2023/08/21 03:31:47;;;;;;;12.15;7.63;;;;;;;27.26;65.89;101784.94;5024551;27;96861;-65
2023/08/21 03:34:14;;;;;;;12.43;7.40;;;;;;;27.30;65.73;101783.69;5026912;27;97064;-65
2023/08/21 03:36:40;;;;;;;8.45;6.53;;;;;;;27.28;65.84;101785.66;5027297;27;98918;-65
2023/08/21 03:39:06;;;;;;;12.60;7.53;;;;;;;27.25;65.38;101785.06;5023101;27;98763;-65
2023/08/21 03:41:34;;;;;;;9.85;7.07;;;;;;;27.24;65.21;101788.81;5025184;27;97012;-65
2023/08/21 03:44:01;;;;;;;15.90;7.32;;;;;;;26.98;66.07;101785.66;5025152;27;97402;-65
2023/08/21 03:46:27;;;;;;;8.15;6.78;;;;;;;27.02;65.42;101776.28;5022160;27;99474;-65
2023/08/21 03:48:53;;;;;;;8.13;7.30;;;;;;;27.11;65.07;101786.28;5027570;27;102588;-65
2023/08/21 03:51:20;;;;;;;11.57;6.80;;;;;;;27.05;65.43;101792.25;5023064;27;97510;-65
2023/08/21 03:53:46;;;;;;;10.13;7.03;;;;;;;26.88;65.95;101792.88;5028333;27;99453;-65
2023/08/21 03:56:12;;;;;;;13.15;7.05;;;;;;;26.78;66.60;101794.69;5029021;27;98693;-66
2023/08/21 03:58:40;;;;;;;15.00;7.40;;;;;;;26.91;66.86;101798.06;5025702;27;98867;-66
2023/08/21 04:01:07;;;;;;;10.30;6.82;;;;;;;26.94;66.97;101797.78;5025136;27;96927;-66
2023/08/21 04:03:33;;;;;;;10.73;7.15;;;;;;;26.86;67.28;101811.13;5029956;27;96900;-67
2023/08/21 04:06:02;;;;;;;11.48;6.97;;;;;;;26.78;66.88;101808.25;5026919;27;101947;-66
2023/08/21 04:08:28;;;;;;;11.27;7.30;;;;;;;26.98;65.96;101801.94;5029414;27;99305;-66
2023/08/21 04:11:00;;;;;;;8.30;6.55;;;;;;;27.13;64.85;101806.03;5021849;27;96835;-66
2023/08/21 04:13:26;;;;;;;12.98;7.45;;;;;;;26.95;64.49;101804.94;5028018;27;96868;-66
2023/08/21 04:15:55;;;;;;;9.25;7.50;;;;;;;26.86;64.99;101811.13;5024158;27;97893;-66
2023/08/21 04:18:22;;;;;;;9.60;6.47;;;;;;;27.02;64.09;101811.53;5025415;27;99105;-66
2023/08/21 04:20:49;;;;;;;12.07;6.35;;;;;;;27.02;63.98;101810.69;5024233;27;96752;-66
2023/08/21 04:23:15;;;;;;;11.57;6.60;;;;;;;27.15;63.25;101814.88;5026197;27;100706;-65
2023/08/21 04:25:43;;;;;;;9.15;6.47;;;;;;;27.07;63.99;101819.25;5029157;27;99425;-65
2023/08/21 04:28:09;;;;;;;9.70;6.40;;;;;;;26.99;64.67;101828.06;5028796;27;98279;-65
2023/08/21 04:30:36;;;;;;;9.20;6.85;;;;;;;26.91;64.97;101819.78;5024626;27;96883;-66
2023/08/21 04:33:05;;;;;;;7.43;6.32;;;;;;;26.96;64.47;101828.34;5028739;27;97771;-66
2023/08/21 04:35:37;;;;;;;11.95;6.40;;;;;;;26.80;64.86;101836.94;5026961;27;99410;-65
2023/08/21 04:38:04;;;;;;;17.45;7.25;;;;;;;26.99;64.14;101833.50;5027234;27;98240;-65
2023/08/21 04:40:30;;;;;;;11.55;7.20;;;;;;;26.92;64.34;101838.59;5028738;27;97889;-65
2023/08/21 04:42:56;;;;;;;11.93;6.93;;;;;;;27.09;64.04;101845.28;5027011;27;96832;-65
2023/08/21 04:45:23;;;;;;;9.50;6.40;;;;;;;27.06;64.32;101842.81;5017063;27;99079;-65
2023/08/21 04:47:49;;;;;;;11.32;6.60;;;;;;;26.99;64.57;101833.50;5024373;27;99414;-65
2023/08/21 04:50:17;;;;;;;10.63;6.72;;;;;;;27.07;64.51;101843.69;5025178;27;97463;-65
2023/08/21 04:52:43;;;;;;;17.00;7.60;;;;;;;26.95;65.33;101841.06;5023998;27;97070;-65
2023/08/21 04:55:10;;;;;;;8.48;6.80;;;;;;;26.78;66.26;101844.31;5020936;27;98312;-65
2023/08/21 04:57:36;;;;;;;13.32;7.30;;;;;;;26.84;66.29;101845.66;5022101;27;98804;-65
2023/08/21 05:00:04;;;;;;;9.05;7.10;;;;;;;26.64;68.05;101846.53;5030850;27;96842;-65
2023/08/21 05:02:30;;;;;;;16.48;7.90;;;;;;;26.71;67.84;101842.31;5026577;27;98854;-66
2023/08/21 05:04:57;;;;;;;13.90;7.63;;;;;;;26.68;68.51;101842.56;5027940;27;99146;-65
2023/08/21 05:07:26;;;;;;;9.95;6.97;;;;;;;26.75;67.81;101850.03;5030201;27;98900;-66
2023/08/21 05:09:53;;;;;;;12.75;7.88;;;;;;;26.89;67.20;101844.31;5024273;27;96846;-65
2023/08/21 05:12:19;;;;;;;11.90;8.00;;;;;;;26.88;67.33;101847.09;5023752;27;101370;-66
2023/08/21 05:14:45;;;;;;;10.93;8.05;;;;;;;26.96;67.04;101840.06;5025711;27;98489;-65
2023/08/21 05:17:12;;;;;;;12.20;7.95;;;;;;;27.09;66.73;101847.13;5027001;27;99004;-66
2023/08/21 05:19:38;;;;;;;9.00;7.32;;;;;;;27.09;66.79;101844.41;5026668;27;97074;-66
2023/08/21 05:22:04;;;;;;;10.60;7.70;;;;;;;27.07;66.28;101846.41;5024652;27;97113;-66
2023/08/21 05:24:32;;;;;;;15.68;8.30;;;;;;;27.03;66.15;101848.53;5024923;27;99216;-66
2023/08/21 05:26:59;;;;;;;12.02;7.53;;;;;;;27.40;65.18;101840.69;5022237;27;98877;-65
2023/08/21 05:29:26;;;;;;;8.75;7.60;;;;;;;27.63;63.98;101842.25;5026026;27;96866;-65
2023/08/21 05:31:52;;;;;;;10.82;7.65;;;;;;;27.70;63.83;101840.69;5025438;27;96768;-65
2023/08/21 05:34:18;;;;;;;15.82;8.07;;;;;;;27.80;63.06;101843.44;5020945;27;99029;-66
2023/08/21 05:36:45;;;;;;;9.40;7.38;;;;;;;27.96;62.90;101835.59;5025309;27;98824;-66
2023/08/21 05:39:11;;;;;;;11.85;7.38;;;;;;;28.01;61.99;101832.47;5029144;27;97089;-66
2023/08/21 05:41:39;;;;;;;11.68;7.22;;;;;;;28.32;60.91;101830.50;5019359;27;96994;-66
2023/08/21 05:44:05;;;;;;;7.93;6.70;;;;;;;28.28;60.48;101834.53;5026755;27;99056;-66
2023/08/21 05:46:32;;;;;;;10.23;7.28;;;;;;;28.39;60.28;101839.81;5027186;27;99664;-66
2023/08/21 05:48:58;;;;;;;7.65;6.85;;;;;;;28.70;59.40;101835.91;5025876;27;97003;-66
2023/08/21 05:51:25;;;;;;;13.35;7.95;;;;;;;28.37;59.75;101839.06;5026915;27;98923;-66
2023/08/21 05:53:51;;;;;;;10.82;6.72;;;;;;;28.58;59.34;101841.66;5027410;27;98400;-66
2023/08/21 05:56:18;;;;;;;10.80;7.65;;;;;;;28.50;59.65;101835.06;5022626;27;101809;-66
2023/08/21 05:58:45;;;;;;;14.05;7.78;;;;;;;28.35;59.87;101844.69;5033134;27;100224;-66
2023/08/21 06:01:12;;;;;;;11.07;7.55;;;;;;;28.50;59.90;101847.81;5026972;27;97085;-66
2023/08/21 06:03:39;;;;;;;11.23;7.32;;;;;;;28.54;59.59;101841.94;5023363;27;99020;-66
2023/08/21 06:06:05;;;;;;;9.55;6.68;;;;;;;28.51;59.98;101842.22;5027032;27;101918;-64
2023/08/21 06:08:32;;;;;;;11.32;7.85;;;;;;;28.71;59.27;101842.19;5032182;27;97614;-65
2023/08/21 06:10:58;;;;;;;11.75;7.15;;;;;;;28.67;58.85;101852.53;5026043;27;96887;-64
2023/08/21 06:13:25;;;;;;;13.50;7.93;;;;;;;28.96;57.36;101846.19;5020876;27;99173;-65
2023/08/21 06:15:56;;;;;;;13.65;7.47;;;;;;;29.00;57.41;101843.03;5023052;27;97545;-65
2023/08/21 06:18:23;;;;;;;12.75;7.13;;;;;;;29.05;57.57;101856.19;5021851;27;96841;-64
2023/08/21 06:20:53;;;;;;;12.40;7.63;;;;;;;29.07;57.42;101859.63;5026225;27;97019;-64
2023/08/21 06:23:19;;;;;;;10.45;6.80;;;;;;;28.75;57.80;101865.44;5021997;27;101857;-65
2023/08/21 06:25:46;;;;;;;13.82;6.78;;;;;;;28.97;57.29;101866.94;5029699;27;99493;-65
2023/08/21 06:28:12;;;;;;;8.40;7.20;;;;;;;29.07;57.20;101873.25;5030052;27;97190;-66
2023/08/21 06:30:39;;;;;;;9.27;6.97;;;;;;;28.92;57.73;101879.16;5026406;27;96874;-64
2023/08/21 06:33:06;;;;;;;13.05;7.25;;;;;;;29.12;57.21;101869.06;5026383;27;99185;-65
2023/08/21 06:35:33;;;;;;;12.57;8.05;;;;;;;29.04;57.51;101871.66;5026159;27;99092;-65
2023/08/21 06:37:59;;;;;;;10.45;7.88;;;;;;;28.88;58.84;101879.59;5023977;27;96818;-65
2023/08/21 06:40:26;;;;;;;11.40;7.43;;;;;;;29.05;58.89;101872.53;5024272;27;98462;-64
2023/08/21 06:42:52;;;;;;;9.15;7.25;;;;;;;29.09;58.38;101874.78;5022832;27;98666;-65
2023/08/21 06:45:19;;;;;;;16.45;8.18;;;;;;;29.23;58.02;101876.19;5024766;27;98811;-65
2023/08/21 06:47:45;;;;;;;14.23;7.57;;;;;;;29.28;57.79;101882.91;5029489;27;97322;-65
2023/08/21 06:50:13;;;;;;;14.60;7.57;;;;;;;30.03;55.65;101879.16;5028856;27;99823;-65
2023/08/21 06:52:40;;;;;;;10.05;7.57;;;;;;;30.16;53.86;101875.19;5028019;27;98967;-65
2023/08/21 06:55:07;;;;;;;13.20;7.03;;;;;;;29.98;52.94;101883.38;5031591;27;98836;-65
2023/08/21 06:57:34;;;;;;;12.05;7.60;;;;;;;29.91;53.73;101880.34;5022322;27;99124;-65
2023/08/21 07:00:00;;;;;;;14.27;7.57;;;;;;;29.59;54.47;101882.69;5025015;27;98197;-66
2023/08/21 07:02:26;;;;;;;16.60;7.20;;;;;;;29.48;55.60;101878.28;5028582;27;98949;-66
2023/08/21 07:04:53;;;;;;;12.57;7.22;;;;;;;29.37;54.68;101873.03;5026976;27;97537;-65
2023/08/21 07:07:21;;;;;;;10.50;6.40;;;;;;;29.47;54.35;101873.00;5020969;27;97682;-65
2023/08/21 07:09:47;;;;;;;10.38;7.10;;;;;;;29.73;54.40;101869.41;5029173;27;96949;-66
2023/08/21 07:12:13;;;;;;;10.50;6.85;;;;;;;30.30;50.99;101872.81;5026118;27;98326;-66
2023/08/21 07:14:40;;;;;;;8.65;4.85;;;;;;;30.39;49.20;101873.75;5033003;27;99360;-66
2023/08/21 07:17:06;;;;;;;9.55;5.25;;;;;;;30.52;47.72;101870.66;5030399;27;96807;-66
2023/08/21 07:19:33;;;;;;;9.52;5.30;;;;;;;31.56;45.75;101881.47;5023650;27;96923;-66
2023/08/21 07:21:59;;;;;;;11.02;5.53;;;;;;;31.75;45.40;101893.19;5028845;27;101288;-68
2023/08/21 07:24:27;;;;;;;9.63;5.07;;;;;;;31.07;45.63;101884.91;5020703;27;98865;-66
2023/08/21 07:26:53;;;;;;;8.18;4.60;;;;;;;31.02;46.38;101885.38;5022226;27;98308;-67
2023/08/21 07:29:20;;;;;;;7.05;4.82;;;;;;;31.22;45.32;101892.38;5029814;27;96847;-67
2023/08/21 07:31:49;;;;;;;15.90;5.03;;;;;;;31.11;45.87;101889.06;5027598;27;99522;-66
2023/08/21 07:34:15;;;;;;;6.22;4.68;;;;;;;30.88;46.19;101894.13;5018608;27;99564;-66
2023/08/21 07:36:44;;;;;;;9.23;4.50;;;;;;;31.35;45.83;101893.78;5030923;27;98571;-67
2023/08/21 07:39:10;;;;;;;11.40;4.78;;;;;;;31.27;45.05;101887.28;5027392;27;97500;-66
2023/08/21 07:41:38;;;;;;;8.27;4.43;;;;;;;31.56;44.76;101884.19;5017590;27;100408;-65
2023/08/21 07:44:04;;;;;;;8.60;4.95;;;;;;;32.28;42.99;101890.97;5024717;27;98820;-65
2023/08/21 07:46:31;;;;;;;10.20;4.50;;;;;;;32.26;42.28;101898.47;5020890;27;98931;-66
2023/08/21 07:48:57;;;;;;;27.02;5.65;;;;;;;32.12;42.39;101899.09;5021592;27;97165;-67
2023/08/21 07:51:24;;;;;;;9.98;4.28;;;;;;;31.99;41.17;101896.84;5026116;27;97713;-66
2023/08/21 07:53:50;;;;;;;5.25;3.50;;;;;;;31.91;41.31;101899.53;5020752;27;101329;-65
2023/08/21 07:56:16;;;;;;;6.40;4.20;;;;;;;32.00;41.28;101903.16;5022268;27;97713;-66
2023/08/21 07:58:44;;;;;;;6.43;3.70;;;;;;;31.76;41.66;101893.00;5021995;27;96874;-66
2023/08/21 08:01:10;;;;;;;6.13;3.33;;;;;;;31.82;40.56;101910.63;5019513;27;98910;-66
2023/08/21 08:03:37;;;;;;;6.88;3.30;;;;;;;31.75;40.40;101904.97;5004251;27;100092;-66
2023/08/21 08:06:04;;;;;;;4.85;3.38;;;;;;;31.44;40.27;101901.84;5018027;27;99064;-66
2023/08/21 08:08:30;;;;;;;5.28;3.28;;;;;;;31.65;40.00;101909.69;5021616;27;97027;-66
2023/08/21 08:11:02;;;;;;;9.40;3.65;;;;;;;31.05;40.33;101901.44;5020464;27;98909;-67
2023/08/21 08:13:28;;;;;;;11.23;3.78;;;;;;;31.06;41.32;101900.44;5018972;27;99111;-66
2023/08/21 08:15:56;;;;;;;4.95;3.47;;;;;;;31.49;40.73;101912.31;5024944;27;96801;-67
2023/08/21 08:18:22;;;;;;;6.55;3.20;;;;;;;30.97;40.89;101904.09;5019941;27;97040;-66
2023/08/21 08:20:48;;;;;;;6.72;2.92;;;;;;;30.84;41.34;101909.13;5019758;27;99045;-66
2023/08/21 08:23:15;;;;;;;5.70;2.90;;;;;;;31.01;41.47;101901.91;5026069;27;99222;-66
2023/08/21 08:25:41;;;;;;;5.97;2.85;;;;;;;30.93;41.16;101901.81;5026280;27;97202;-66
2023/08/21 08:28:07;;;;;;;7.00;3.22;;;;;;;30.71;40.99;101903.22;5023634;27;96920;-66
2023/08/21 08:30:36;;;;;;;6.45;2.97;;;;;;;30.64;41.46;101896.66;5024997;27;99003;-67
2023/08/21 08:33:04;;;;;;;6.20;2.53;;;;;;;30.87;40.62;101903.31;5023856;27;101589;-66
2023/08/21 08:35:30;;;;;;;7.47;2.80;;;;;;;31.20;39.62;101904.44;5029571;27;97207;-66
2023/08/21 08:37:57;;;;;;;11.27;3.03;;;;;;;31.32;39.00;101907.75;5019213;27;97485;-65
2023/08/21 08:40:23;;;;;;;14.63;2.13;;;;;;;31.55;36.79;101908.94;5023416;27;98922;-63
2023/08/21 08:42:50;;;;;;;4.95;1.83;;;;;;;31.63;35.19;101901.66;5023486;27;98839;-64
2023/08/21 08:45:25;;;;;;;7.60;1.85;;;;;;;31.91;33.04;101904.16;5025075;27;97200;-63
2023/08/21 08:47:51;;;;;;;6.55;1.75;;;;;;;31.97;31.95;101907.06;5023843;27;96864;-64
2023/08/21 08:50:20;;;;;;;12.23;1.80;;;;;;;31.62;31.65;101904.56;5027877;27;98908;-64
2023/08/21 08:52:47;;;;;;;9.02;1.67;;;;;;;31.98;31.16;101900.59;5027157;27;98928;-64
2023/08/21 08:55:14;;;;;;;7.68;1.40;;;;;;;32.56;29.38;101907.09;5026645;27;96976;-65
2023/08/21 08:57:40;;;;;;;5.90;1.25;;;;;;;32.73;29.16;101906.09;5022627;27;96847;-64
2023/08/21 09:00:08;;;;;;;7.25;1.20;;;;;;;33.04;27.52;101908.97;5023457;27;100764;-65
2023/08/21 09:02:35;;;;;;;4.70;0.93;;;;;;;32.83;27.82;101904.00;5021803;27;98885;-65
2023/08/21 09:05:01;;;;;;;4.88;1.08;;;;;;;32.71;28.58;101898.03;5022392;27;96876;-64
2023/08/21 09:07:29;;;;;;;9.48;1.30;;;;;;;33.00;28.22;101897.50;5025171;27;96927;-65
2023/08/21 09:09:55;;;;;;;3.53;1.17;;;;;;;33.03;27.77;101902.63;5029760;27;99236;-65
2023/08/21 09:12:22;;;;;;;5.97;1.20;;;;;;;33.02;28.17;101897.31;5026101;27;98923;-64
2023/08/21 09:14:48;;;;;;;3.97;1.40;;;;;;;33.13;27.90;101903.31;5029031;27;97747;-64
2023/08/21 09:17:15;;;;;;;3.03;1.50;;;;;;;32.83;28.00;101893.91;5032520;27;96823;-64
2023/08/21 09:19:42;;;;;;;10.77;2.00;;;;;;;33.24;28.22;101899.38;5030308;27;98518;-65
2023/08/21 09:22:10;;;;;;;4.35;1.70;;;;;;;33.28;28.06;101889.78;5029829;27;98698;-65
2023/08/21 09:24:38;;;;;;;10.40;3.20;;;;;;;32.87;28.45;101890.84;5028778;27;96830;-64
2023/08/21 09:27:05;;;;;;;2.70;1.40;;;;;;;33.12;28.38;101889.78;5028785;27;97311;-64
2023/08/21 09:29:39;;;;;;;3.80;1.42;;;;;;;33.00;27.97;101891.19;5025065;27;99288;-64
2023/08/21 09:32:05;;;;;;;3.83;0.93;;;;;;;32.91;27.93;101886.72;5022812;27;98949;-64
2023/08/21 09:34:36;;;;;;;1.95;0.95;;;;;;;32.96;28.34;101885.19;5029071;27;97008;-64
2023/08/21 09:37:06;;;;;;;4.10;1.05;;;;;;;32.81;28.23;101886.94;5025892;27;98355;-65
2023/08/21 09:39:34;;;;;;;3.63;1.23;;;;;;;33.00;28.36;101896.66;5028387;27;100806;-64
2023/08/21 09:42:02;;;;;;;4.05;1.40;;;;;;;33.21;28.63;101894.25;5028159;27;98192;-64
2023/08/21 09:44:30;;;;;;;2.80;1.48;;;;;;;33.42;28.53;101891.78;5027332;27;97270;-65
2023/08/21 09:46:56;;;;;;;4.10;1.60;;;;;;;33.74;28.39;101892.75;5028118;27;96891;-65
2023/08/21 09:49:23;;;;;;;4.07;1.20;;;;;;;33.35;28.24;101888.03;5023716;27;99588;-64
2023/08/21 09:51:50;;;;;;;4.88;2.13;;;;;;;33.44;28.34;101889.72;5027294;27;99194;-65
2023/08/21 09:54:17;;;;;;;5.30;1.70;;;;;;;33.45;28.99;101883.22;5021260;27;100363;-63
2023/08/21 09:56:44;;;;;;;5.57;1.70;;;;;;;33.14;28.98;101887.75;5031119;27;96927;-65
2023/08/21 09:59:12;;;;;;;5.28;1.15;;;;;;;32.90;29.15;101882.28;5024998;27;99002;-64
2023/08/21 10:01:39;;;;;;;5.70;2.00;;;;;;;32.37;30.33;101880.88;5027334;27;97386;-64
2023/08/21 10:04:08;;;;;;;6.47;1.77;;;;;;;32.08;30.76;101880.47;5023436;27;97327;-64
2023/08/21 10:06:36;;;;;;;5.30;1.65;;;;;;;32.33;30.77;101882.25;5030567;27;96806;-65
2023/08/21 10:09:03;;;;;;;7.93;1.67;;;;;;;32.40;31.12;101875.94;5029946;27;99434;-64
2023/08/21 10:11:30;;;;;;;3.83;1.77;;;;;;;32.69;30.11;101872.72;5029151;27;98771;-64
2023/08/21 10:13:57;;;;;;;4.97;1.75;;;;;;;32.80;30.15;101880.59;5028519;27;96884;-64
2023/08/21 10:16:25;;;;;;;7.93;2.03;;;;;;;32.57;29.90;101870.47;5028051;27;96921;-64
2023/08/21 10:18:52;;;;;;;9.80;1.95;;;;;;;32.66;30.05;101874.91;5028417;27;99253;-64
2023/08/21 10:21:21;;;;;;;2.70;1.17;;;;;;;32.64;29.20;101886.03;5027609;27;98641;-64
2023/08/21 10:23:48;;;;;;;4.97;1.15;;;;;;;32.59;29.10;101884.84;5028452;27;96926;-64
2023/08/21 10:26:15;;;;;;;4.65;1.10;;;;;;;32.61;29.59;101880.91;5028964;27;96860;-64
2023/08/21 10:28:44;;;;;;;5.97;1.42;;;;;;;32.68;29.23;101873.75;5029234;27;99440;-64
2023/08/21 10:31:28;;;;;;;5.00;1.20;;;;;;;32.97;28.87;101881.41;5026856;27;99371;-64
2023/08/21 10:33:54;;;;;;;4.97;1.30;;;;;;;33.35;28.92;101884.44;5023716;27;97354;-65
2023/08/21 10:37:02;;;;;;;4.25;1.10;;;;;;;32.73;28.82;101884.19;5024012;27;97779;-64
2023/08/21 10:39:31;;;;;;;4.97;1.40;;;;;;;32.75;28.95;101880.25;5025524;27;99133;-64
2023/08/21 10:41:58;;;;;;;3.33;1.02;;;;;;;32.84;29.60;101881.09;5023287;27;98879;-64
2023/08/21 10:44:35;;;;;;;7.43;1.70;;;;;;;32.37;28.96;101875.41;5026327;27;97919;-64
2023/08/21 10:47:17;;;;;;;2.00;1.20;;;;;;;32.56;29.37;101877.81;5023520;27;97514;-63
2023/08/21 10:49:45;;;;;;;5.70;1.25;;;;;;;32.90;28.80;101880.41;5025158;27;98855;-65
2023/08/21 10:52:12;;;;;;;4.03;1.25;;;;;;;32.96;28.39;101878.84;5028648;27;102400;-66
2023/08/21 10:54:49;;;;;;;6.13;1.13;;;;;;;32.75;28.52;101877.53;5016783;27;98108;-64
2023/08/21 10:57:16;;;;;;;3.13;1.40;;;;;;;33.26;28.34;101880.03;5022579;27;98380;-66
2023/08/21 10:59:56;;;;;;;2.88;1.13;;;;;;;32.93;28.86;101879.22;5029665;27;96898;-64
2023/08/21 11:02:25;;;;;;;5.07;1.02;;;;;;;33.07;28.50;101881.25;5026896;27;98787;-64
2023/08/21 11:04:52;;;;;;;5.43;1.30;;;;;;;33.32;28.54;101885.66;5019191;27;96806;-65
2023/08/21 11:07:19;;;;;;;8.07;0.98;;;;;;;33.49;27.98;101887.31;5024444;27;97332;-65
2023/08/21 11:09:46;;;;;;;2.95;1.13;;;;;;;33.84;27.99;101890.63;5023997;27;99370;-64
2023/08/21 11:12:14;;;;;;;3.95;1.08;;;;;;;33.90;28.57;101895.41;5026254;27;98076;-65
2023/08/21 11:14:41;;;;;;;6.22;1.63;;;;;;;33.71;28.50;101882.97;5022156;27;97346;-65
2023/08/21 11:17:08;;;;;;;2.83;1.15;;;;;;;33.60;28.56;101888.84;5022973;27;96853;-65
2023/08/21 11:19:37;;;;;;;3.47;1.30;;;;;;;33.22;28.40;101887.72;5023661;27;97683;-64
2023/08/21 11:22:05;;;;;;;5.53;1.65;;;;;;;33.73;28.36;101886.41;5025534;27;98424;-65